Terminal Aerodrome Forecast
Issued by NWS Binghamton, NY

Home | Current Version | Previous Version | Text Only | Print | Product List | Glossary On
Versions: 1 2 3 4 5 6 7 8 9 10 11 12 13 14 15 16
000
FTUS41 KBGM 221137
TAFAVP
TAF
KAVP 221137Z 2212/2312 22005KT P6SM SCT120
      TEMPO 2212/2214 5SM BR
     FM221700 22012G22KT P6SM BKN045
      TEMPO 2221/2301 VRB35KT 3SM +TSRA OVC025CB
     FM230100 25008KT 5SM BR BKN025
     FM230900 29008KT P6SM SCT070=

USA.gov is the U.S. government's official web portal to all federal, state and local government web resources and services.